Terminal Aerodrome Forecast
Issued by NWS Milwaukee/Sullivan, WI

Home | Current Version | Previous Version | Text Only | Print | Product List | Glossary On
Versions: 1 2 3 4 5 6 7 8 9 10 11 12 13 14 15 16 17 18 19 20 21
000
FTUS43 KMKX 191133
TAFMSN
TAF
KMSN 191133Z 1912/2012 VRB04KT P6SM SCT060 BKN250
     FM191500 VRB03KT 3SM BR VCSH BKN025
     FM191700 07006KT 1 1/2SM RA BR VCTS OVC003CB
     FM192300 06006KT 3SM RA BR VCTS OVC003CB
     FM200000 06006KT 3SM -RA BR OVC003=

USA.gov is the U.S. government's official web portal to all federal, state and local government web resources and services.